Time,TemperatureF,DewpointF,PressureIn,WindDirection,WindDirectionDegrees,WindSpeedMPH,WindSpeedGustMPH,Humidity,HourlyPrecipIn,Conditions,Clouds,dailyrainin,SoftwareType,DateUTC
2013-01-19 00:06:00,39.3,37.0,26.67,ENE,69,0.0,-999.0,90,-99.99,,,0.00,weatherlink.com 1.10,2013-01-19 06:06:00,
2013-01-19 00:21:00,-999.0,-99.9,26.67,North,-999,-999.0,-999.0,-999,-99.99,,,0.00,weatherlink.com 1.10,2013-01-19 06:21:00,
2013-01-19 00:36:00,-999.0,-99.9,25.67,North,-999,-999.0,-999.0,-999,-99.99,,,0.00,weatherlink.com 1.10,2013-01-19 06:36:00,
2013-01-19 01:06:00,-999.0,-99.9,27.68,North,-999,-999.0,-999.0,-999,-99.99,,,0.00,weatherlink.com 1.10,2013-01-19 07:06:00,
2013-01-19 01:21:00,-999.0,-99.9,27.68,North,-999,-999.0,-999.0,-999,-99.99,,,0.00,weatherlink.com 1.10,2013-01-19 07:21:00,
2013-01-19 01:36:00,-999.0,-99.9,27.68,North,-999,-999.0,-999.0,-999,-99.99,,,0.00,weatherlink.com 1.10,2013-01-19 07:36:00,
2013-01-19 01:51:00,-999.0,-99.9,27.68,North,-999,-999.0,-999.0,-999,-99.99,,,0.00,weatherlink.com 1.10,2013-01-19 07:51:00,
2013-01-19 02:07:00,-999.0,-99.9,27.68,North,-999,-999.0,-999.0,-999,-99.99,,,0.00,weatherlink.com 1.10,2013-01-19 08:07:00,
2013-01-19 02:22:00,-999.0,-99.9,28.94,North,-999,-999.0,-999.0,-999,-99.99,,,0.00,weatherlink.com 1.10,2013-01-19 08:22:00,
2013-01-19 02:37:00,-999.0,-99.9,28.94,North,-999,-999.0,-999.0,-999,-99.99,,,0.00,weatherlink.com 1.10,2013-01-19 08:37:00,
2013-01-19 02:52:00,-999.0,-99.9,29.25,North,-999,-999.0,-999.0,-999,-99.99,,,0.00,weatherlink.com 1.10,2013-01-19 08:52:00,
2013-01-19 03:07:00,-999.0,-99.9,29.50,North,-999,-999.0,-999.0,-999,-99.99,,,0.00,weatherlink.com 1.10,2013-01-19 09:07:00,
2013-01-19 03:22:00,-999.0,-99.9,29.50,North,-999,-999.0,-999.0,-999,-99.99,,,0.00,weatherlink.com 1.10,2013-01-19 09:22:00,
2013-01-19 03:37:00,-999.0,-99.9,29.50,North,-999,-999.0,-999.0,-999,-99.99,,,0.00,weatherlink.com 1.10,2013-01-19 09:37:00,
2013-01-19 03:52:00,-999.0,-99.9,29.50,North,-999,-999.0,-999.0,-999,-99.99,,,0.00,weatherlink.com 1.10,2013-01-19 09:52:00,
2013-01-19 04:07:00,-999.0,-99.9,29.50,North,-999,-999.0,-999.0,-999,-99.99,,,0.00,weatherlink.com 1.10,2013-01-19 10:07:00,
2013-01-19 04:22:00,-999.0,-99.9,29.73,North,-999,-999.0,-999.0,-999,-99.99,,,0.00,weatherlink.com 1.10,2013-01-19 10:22:00,
2013-01-19 04:37:00,-999.0,-99.9,29.51,North,-999,-999.0,-999.0,-999,-99.99,,,0.00,weatherlink.com 1.10,2013-01-19 10:37:00,
2013-01-19 04:52:00,-999.0,-99.9,29.74,North,-999,-999.0,-999.0,-999,-99.99,,,0.00,weatherlink.com 1.10,2013-01-19 10:52:00,
2013-01-19 05:07:00,-999.0,-99.9,29.74,North,-999,-999.0,-999.0,-999,-99.99,,,0.00,weatherlink.com 1.10,2013-01-19 11:07:00,
2013-01-19 06:53:00,-999.0,-99.9,29.09,North,-999,-999.0,-999.0,-999,-99.99,,,0.00,weatherlink.com 1.10,2013-01-19 12:53:00,
2013-01-19 07:08:00,-999.0,-99.9,29.09,North,-999,-999.0,-999.0,-999,-99.99,,,0.00,weatherlink.com 1.10,2013-01-19 13:08:00,
2013-01-19 07:23:00,-999.0,-99.9,29.09,North,-999,-999.0,-999.0,-999,-99.99,,,0.00,weatherlink.com 1.10,2013-01-19 13:23:00,
2013-01-19 07:38:00,-999.0,-99.9,29.09,North,-999,-999.0,-999.0,-999,-99.99,,,0.00,weatherlink.com 1.10,2013-01-19 13:38:00,
2013-01-19 07:53:00,-999.0,-99.9,24.95,North,-999,-999.0,-999.0,-999,-99.99,,,0.00,weatherlink.com 1.10,2013-01-19 13:53:00,
2013-01-19 08:08:00,-999.0,-99.9,24.95,North,-999,-999.0,-999.0,-999,-99.99,,,0.00,weatherlink.com 1.10,2013-01-19 14:08:00,
2013-01-19 08:23:00,-999.0,-99.9,24.95,North,-999,-999.0,-999.0,-999,-99.99,,,0.00,weatherlink.com 1.10,2013-01-19 14:23:00,
2013-01-19 08:39:00,49.0,38.0,24.95,ESE,113,0.0,-999.0,67,-99.99,,,0.00,weatherlink.com 1.10,2013-01-19 14:39:00,
2013-01-19 08:54:00,50.2,38.0,21.93,East,86,0.0,-999.0,64,-99.99,,,0.00,weatherlink.com 1.10,2013-01-19 14:54:00,
2013-01-19 09:09:00,51.4,39.0,21.93,East,101,0.0,-999.0,63,-99.99,,,0.00,weatherlink.com 1.10,2013-01-19 15:09:00,
2013-01-19 09:24:00,53.0,40.0,20.38,NE,36,1.0,-999.0,62,-99.99,,,0.00,weatherlink.com 1.10,2013-01-19 15:24:00,
2013-01-19 09:39:00,54.4,41.0,20.38,NE,36,0.0,-999.0,61,-99.99,,,0.00,weatherlink.com 1.10,2013-01-19 15:39:00,
2013-01-19 09:54:00,55.5,42.0,20.38,NE,49,0.0,-999.0,60,-99.99,,,0.00,weatherlink.com 1.10,2013-01-19 15:54:00,
2013-01-19 10:09:00,56.0,43.0,20.38,ESE,111,4.0,-999.0,61,-99.99,,,0.00,weatherlink.com 1.10,2013-01-19 16:09:00,
2013-01-19 10:24:00,57.6,43.0,0.00,NE,44,0.0,-999.0,59,-99.99,,,0.00,weatherlink.com 1.10,2013-01-19 16:24:00,
2013-01-19 10:39:00,58.6,43.0,0.00,NNE,28,0.0,-999.0,57,-99.99,,,0.00,weatherlink.com 1.10,2013-01-19 16:39:00,
2013-01-19 10:54:00,59.5,44.0,0.00,NNE,23,4.0,-999.0,56,-99.99,,,0.00,weatherlink.com 1.10,2013-01-19 16:54:00,
2013-01-19 11:09:00,60.2,45.0,0.00,NNE,27,3.0,-999.0,57,-99.99,,,0.00,weatherlink.com 1.10,2013-01-19 17:09:00,
2013-01-19 11:39:00,61.2,46.0,0.00,NNE,33,0.0,-999.0,58,-99.99,,,0.00,weatherlink.com 1.10,2013-01-19 17:39:00,
2013-01-19 11:54:00,61.7,46.0,0.00,North,10,0.0,-999.0,57,-99.99,,,0.00,weatherlink.com 1.10,2013-01-19 17:54:00,
2013-01-19 12:09:00,60.0,49.0,0.00,WNW,299,6.0,-999.0,68,-99.99,,,0.00,weatherlink.com 1.10,2013-01-19 18:09:00,
2013-01-19 12:24:00,54.6,48.0,0.00,NW,305,6.0,-999.0,79,-99.99,,,0.00,weatherlink.com 1.10,2013-01-19 18:24:00,
2013-01-19 12:39:00,54.7,48.0,30.64,NW,306,5.0,-999.0,79,-99.99,,,0.00,weatherlink.com 1.10,2013-01-19 18:39:00,
2013-01-19 12:54:00,55.1,49.0,30.64,NW,307,4.0,-999.0,80,-99.99,,,0.00,weatherlink.com 1.10,2013-01-19 18:54:00,
2013-01-19 13:09:00,55.6,50.0,24.39,NW,311,3.0,-999.0,80,-99.99,,,0.00,weatherlink.com 1.10,2013-01-19 19:09:00,
2013-01-19 13:39:00,57.6,52.0,24.23,NNW,327,2.0,-999.0,80,-99.99,,,0.00,weatherlink.com 1.10,2013-01-19 19:39:00,
2013-01-19 13:54:00,57.3,50.0,24.39,North,5,4.0,-999.0,77,-99.99,,,0.00,weatherlink.com 1.10,2013-01-19 19:54:00,
2013-01-19 14:09:00,57.7,51.0,24.46,North,5,2.0,-999.0,78,-99.99,,,0.00,weatherlink.com 1.10,2013-01-19 20:09:00,
2013-01-19 14:24:00,58.4,51.0,24.46,North,5,2.0,-999.0,77,-99.99,,,0.00,weatherlink.com 1.10,2013-01-19 20:24:00,
2013-01-19 14:39:00,58.3,51.0,24.46,North,360,2.0,-999.0,77,-99.99,,,0.00,weatherlink.com 1.10,2013-01-19 20:39:00,
2013-01-19 14:54:00,59.3,52.0,25.75,North,360,3.0,-999.0,77,-99.99,,,0.00,weatherlink.com 1.10,2013-01-19 20:54:00,
2013-01-19 15:10:00,58.7,52.0,26.05,North,360,2.0,-999.0,77,-99.99,,,0.00,weatherlink.com 1.10,2013-01-19 21:10:00,
2013-01-19 15:24:00,58.1,50.0,26.05,North,360,2.0,-999.0,75,-99.99,,,0.00,weatherlink.com 1.10,2013-01-19 21:24:00,
2013-01-19 15:39:00,58.1,51.0,26.05,North,360,4.0,-999.0,77,-99.99,,,0.00,weatherlink.com 1.10,2013-01-19 21:39:00,
2013-01-19 16:24:00,58.4,49.0,26.05,North,360,0.0,-999.0,71,-99.99,,,0.00,weatherlink.com 1.10,2013-01-19 22:24:00,
2013-01-19 16:40:00,59.5,50.0,26.05,North,360,0.0,-999.0,72,-99.99,,,0.00,weatherlink.com 1.10,2013-01-19 22:40:00,
2013-01-19 17:25:00,56.5,50.0,26.05,NE,49,0.0,-999.0,79,-99.99,,,0.00,weatherlink.com 1.10,2013-01-19 23:25:00,
2013-01-19 17:40:00,55.5,49.0,26.05,NE,49,0.0,-999.0,80,-99.99,,,0.00,weatherlink.com 1.10,2013-01-19 23:40:00,
2013-01-19 17:55:00,54.6,50.0,26.05,NE,49,0.0,-999.0,83,-99.99,,,0.00,weatherlink.com 1.10,2013-01-19 23:55:00,
2013-01-19 18:10:00,53.9,49.0,26.05,NE,49,0.0,-999.0,84,-99.99,,,0.00,weatherlink.com 1.10,2013-01-20 00:10:00,
2013-01-19 18:25:00,53.2,49.0,26.05,NE,49,0.0,-999.0,85,-99.99,,,0.00,weatherlink.com 1.10,2013-01-20 00:25:00,
2013-01-19 18:40:00,52.6,49.0,26.05,NE,49,0.0,-999.0,86,-99.99,,,0.00,weatherlink.com 1.10,2013-01-20 00:40:00,
2013-01-19 18:55:00,52.0,48.0,26.05,NE,49,0.0,-999.0,85,-99.99,,,0.00,weatherlink.com 1.10,2013-01-20 00:55:00,
2013-01-19 19:10:00,51.4,47.0,26.05,NE,49,0.0,-999.0,86,-99.99,,,0.00,weatherlink.com 1.10,2013-01-20 01:10:00,
2013-01-19 19:25:00,51.0,47.0,26.05,NE,51,0.0,-999.0,86,-99.99,,,0.00,weatherlink.com 1.10,2013-01-20 01:25:00,
2013-01-19 19:40:00,50.3,47.0,26.05,NE,52,0.0,-999.0,87,-99.99,,,0.00,weatherlink.com 1.10,2013-01-20 01:40:00,
2013-01-19 19:55:00,49.8,46.0,26.05,NE,52,0.0,-999.0,88,-99.99,,,0.00,weatherlink.com 1.10,2013-01-20 01:55:00,
2013-01-19 20:10:00,49.5,46.0,26.05,NE,53,0.0,-999.0,88,-99.99,,,0.00,weatherlink.com 1.10,2013-01-20 02:10:00,
2013-01-19 20:25:00,49.0,46.0,26.05,NE,53,0.0,-999.0,89,-99.99,,,0.00,weatherlink.com 1.10,2013-01-20 02:25:00,
2013-01-19 20:55:00,48.1,45.0,26.05,NE,53,0.0,-999.0,89,-99.99,,,0.00,weatherlink.com 1.10,2013-01-20 02:55:00,
2013-01-19 21:10:00,47.6,45.0,26.05,NE,53,0.0,-999.0,89,-99.99,,,0.00,weatherlink.com 1.10,2013-01-20 03:10:00,
2013-01-19 21:25:00,47.3,45.0,26.05,NE,53,0.0,-999.0,90,-99.99,,,0.00,weatherlink.com 1.10,2013-01-20 03:25:00,
2013-01-19 21:40:00,46.8,44.0,26.05,NE,53,0.0,-999.0,90,-99.99,,,0.00,weatherlink.com 1.10,2013-01-20 03:40:00,
2013-01-19 21:55:00,46.5,44.0,26.05,NE,53,0.0,-999.0,90,-99.99,,,0.00,weatherlink.com 1.10,2013-01-20 03:55:00,
2013-01-19 22:10:00,46.3,44.0,26.05,NE,53,0.0,-999.0,90,-99.99,,,0.00,weatherlink.com 1.10,2013-01-20 04:10:00,
2013-01-19 22:25:00,46.1,43.0,26.05,NE,54,0.0,-999.0,90,-99.99,,,0.00,weatherlink.com 1.10,2013-01-20 04:25:00,
2013-01-19 22:40:00,45.9,44.0,25.49,ENE,69,0.0,-999.0,91,-99.99,,,0.00,weatherlink.com 1.10,2013-01-20 04:40:00,
2013-01-19 22:55:00,45.7,43.0,25.49,ENE,64,0.0,-999.0,91,-99.99,,,0.00,weatherlink.com 1.10,2013-01-20 04:55:00,
2013-01-19 23:10:00,45.5,43.0,24.33,ENE,69,0.0,-999.0,91,-99.99,,,0.00,weatherlink.com 1.10,2013-01-20 05:10:00,
2013-01-19 23:25:00,45.3,43.0,24.33,ENE,69,0.0,-999.0,91,-99.99,,,0.00,weatherlink.com 1.10,2013-01-20 05:25:00,
2013-01-19 23:40:00,45.0,43.0,24.33,ENE,69,0.0,-999.0,91,-99.99,,,0.00,weatherlink.com 1.10,2013-01-20 05:40:00,